Villa de Levittown, Puerto Rico
Current Conditions -  °F | °C
As of 3:45 PM on Wednesday 26 Nov 2014 (Local Time) from TJIG Reporting Station
Scattered Clouds Scattered Clouds  
Wind Chill: 84°   Ceiling: Unl
Heat Index: 91°   Visibility: 10mi
Dew Point: 73°   Wind: 12mph
Humidity: 70%   Direction: 90°E
Pressure: 29.99"   Gusts: NA
Location:  18.4519°N, 66.1817°W
Report Text: TJIG 261945Z 09010KT 10SM SCT040 29/23 A2999 RMK RY09 IN USE ATIS K
Loading
Personal Weather Stations






























Interactive Weather Map New forecast layout! Learn more

10-Day Weather Forecast

Advertisements
Track Severe Weather on mobile